createdAt,value
2018-07-25T00:01:16.222Z,40.50
2018-07-25T00:04:04.906Z,49.63
2018-07-25T00:06:37.656Z,41.17
2018-07-25T00:09:12.303Z,45.40
2018-07-25T00:11:44.793Z,41.13
2018-07-25T00:14:17.629Z,42.90
2018-07-25T00:16:50.091Z,52.47
2018-07-25T00:19:22.720Z,33.73
2018-07-25T00:21:55.415Z,30.07
2018-07-25T00:24:27.902Z,36.00
2018-07-25T00:27:00.493Z,32.57
2018-07-25T00:29:33.012Z,36.77
2018-07-25T00:32:05.785Z,37.27
2018-07-25T00:34:38.379Z,31.87
2018-07-25T00:37:10.882Z,27.83
2018-07-25T00:39:43.830Z,37.20
2018-07-25T00:42:16.577Z,41.53
2018-07-25T00:44:49.083Z,34.97
2018-07-25T00:47:21.808Z,38.53
2018-07-25T00:49:54.437Z,36.37
2018-07-25T00:52:26.903Z,41.58
2018-07-25T00:55:00.137Z,37.13
2018-07-25T00:57:32.635Z,40.07
2018-07-25T01:00:05.329Z,47.57
2018-07-25T01:02:37.911Z,40.50
2018-07-25T01:05:10.665Z,40.20
2018-07-25T01:07:43.560Z,43.67
2018-07-25T01:10:16.336Z,38.27
2018-07-25T01:12:49.193Z,47.50
2018-07-25T01:15:21.861Z,46.50
2018-07-25T01:17:54.935Z,39.47
2018-07-25T01:20:27.530Z,45.90
2018-07-25T01:23:01.619Z,43.80
2018-07-25T01:25:32.849Z,49.80
2018-07-25T01:28:05.308Z,51.33
2018-07-25T01:30:37.884Z,53.05
2018-07-25T01:33:10.431Z,58.40
2018-07-25T01:35:42.980Z,46.03
2018-07-25T01:38:15.581Z,56.63
2018-07-25T01:40:48.164Z,58.27
2018-07-25T01:43:20.696Z,52.70
2018-07-25T01:45:53.262Z,57.85
2018-07-25T01:48:25.993Z,50.43
2018-07-25T01:50:58.475Z,47.33
2018-07-25T01:53:33.980Z,59.63
2018-07-25T01:56:06.583Z,44.67
2018-07-25T01:58:39.088Z,49.53
2018-07-25T02:01:11.490Z,53.30
2018-07-25T02:03:44.039Z,47.03
2018-07-25T02:06:16.672Z,41.57
2018-07-25T02:08:49.214Z,46.87
2018-07-25T02:11:21.941Z,37.70
2018-07-25T02:13:54.533Z,55.87
2018-07-25T02:16:27.064Z,43.07
2018-07-25T02:18:59.577Z,36.30
2018-07-25T02:21:32.018Z,41.92
2018-07-25T02:24:04.715Z,39.87
2018-07-25T02:26:37.320Z,40.97
2018-07-25T02:29:09.969Z,39.80
2018-07-25T02:31:42.403Z,40.20
2018-07-25T02:34:19.290Z,31.40
2018-07-25T02:36:52.886Z,34.00
2018-07-25T02:39:25.414Z,37.47
2018-07-25T02:41:58.122Z,43.73
2018-07-25T02:44:30.790Z,35.47
2018-07-25T02:47:03.732Z,38.20
2018-07-25T02:49:36.338Z,40.77
2018-07-25T02:52:08.993Z,42.67
2018-07-25T02:54:41.713Z,32.37
2018-07-25T02:57:14.310Z,43.43
2018-07-25T02:59:47.357Z,44.38
2018-07-25T03:02:19.896Z,40.03
2018-07-25T03:04:52.410Z,53.97
2018-07-25T03:07:24.816Z,50.23
2018-07-25T03:09:57.561Z,44.83
2018-07-25T03:12:30.193Z,43.50
2018-07-25T03:15:02.782Z,48.03
2018-07-25T03:17:35.163Z,44.40
2018-07-25T03:20:07.773Z,56.93
2018-07-25T03:22:40.322Z,52.10
2018-07-25T03:25:13.566Z,48.50
2018-07-25T03:27:46.148Z,48.83
2018-07-25T03:30:18.486Z,51.20
2018-07-25T03:32:51.133Z,59.27
2018-07-25T03:35:23.777Z,47.30
2018-07-25T03:38:02.509Z,47.93
2018-07-25T03:40:35.150Z,48.77
2018-07-25T03:43:07.927Z,47.40
2018-07-25T03:45:40.686Z,51.63
2018-07-25T03:48:13.187Z,39.83
2018-07-25T03:50:45.967Z,47.13
2018-07-25T03:53:18.511Z,43.23
2018-07-25T03:55:51.117Z,40.83
2018-07-25T03:58:25.285Z,43.80
2018-07-25T04:00:58.164Z,47.87
2018-07-25T04:03:30.684Z,44.63
2018-07-25T04:06:03.188Z,47.77
2018-07-25T04:08:35.883Z,49.63
2018-07-25T04:11:08.750Z,56.70
2018-07-25T04:13:41.267Z,60.87
2018-07-25T04:16:13.892Z,58.50
2018-07-25T04:18:46.637Z,46.83
2018-07-25T04:21:19.283Z,46.57
2018-07-25T04:23:51.734Z,49.97
2018-07-25T04:26:24.468Z,54.33
2018-07-25T04:28:57.033Z,39.43
2018-07-25T04:31:29.782Z,48.80
2018-07-25T04:34:02.442Z,50.88
2018-07-25T04:36:34.902Z,47.53
2018-07-25T04:39:09.603Z,36.93
2018-07-25T04:41:42.569Z,42.30
2018-07-25T04:44:15.215Z,42.60
2018-07-25T04:46:47.825Z,46.63
2018-07-25T04:49:20.470Z,47.50
2018-07-25T04:51:53.503Z,42.50
2018-07-25T04:54:25.915Z,47.65
2018-07-25T04:56:58.352Z,47.97
2018-07-25T04:59:31.124Z,41.20
2018-07-25T05:02:02.344Z,52.40
2018-07-25T05:04:34.993Z,46.50
2018-07-25T05:07:07.549Z,43.33
2018-07-25T05:09:40.225Z,42.57
2018-07-25T05:12:12.760Z,41.13
2018-07-25T05:14:45.530Z,42.10
2018-07-25T05:17:18.262Z,47.93
2018-07-25T05:19:50.749Z,36.53
2018-07-25T05:22:23.189Z,46.97
2018-07-25T05:24:55.840Z,88.93
2018-07-25T05:27:29.073Z,187.43
2018-07-25T05:30:01.655Z,76.10
2018-07-25T05:32:34.263Z,68.50
2018-07-25T05:35:07.013Z,52.60
2018-07-25T05:37:39.689Z,47.23
2018-07-25T05:40:12.229Z,49.63
2018-07-25T05:42:44.768Z,43.73
2018-07-25T05:45:17.403Z,44.03
2018-07-25T05:47:49.994Z,39.67
2018-07-25T05:50:22.432Z,42.50
2018-07-25T05:52:54.884Z,40.63
2018-07-25T05:55:27.483Z,43.87
2018-07-25T05:58:00.124Z,40.23
2018-07-25T06:00:32.647Z,34.43
2018-07-25T06:03:05.493Z,34.20
2018-07-25T06:05:38.115Z,36.27
2018-07-25T06:08:10.654Z,41.03
2018-07-25T06:10:43.114Z,36.10
2018-07-25T06:13:15.825Z,39.30
2018-07-25T06:15:48.398Z,43.67
2018-07-25T06:18:20.897Z,33.33
2018-07-25T06:20:53.662Z,37.95
2018-07-25T06:23:26.370Z,39.33
2018-07-25T06:25:59.016Z,32.53
2018-07-25T06:28:31.748Z,33.03
2018-07-25T06:31:04.284Z,38.67
2018-07-25T06:33:36.770Z,34.13
2018-07-25T06:36:09.518Z,42.53
2018-07-25T06:38:42.183Z,36.93
2018-07-25T06:41:15.165Z,39.13
2018-07-25T06:43:46.539Z,37.50
2018-07-25T06:46:20.779Z,41.33
2018-07-25T06:48:53.502Z,39.67
2018-07-25T06:51:26.195Z,38.87
2018-07-25T06:53:59.140Z,40.63
2018-07-25T06:56:32.218Z,43.00
2018-07-25T06:59:04.796Z,39.40
2018-07-25T07:01:37.293Z,41.27
2018-07-25T07:04:10.076Z,38.97
2018-07-25T07:06:42.715Z,42.93
2018-07-25T07:09:15.468Z,38.57
2018-07-25T07:11:47.919Z,43.37
2018-07-25T07:14:20.605Z,42.27
2018-07-25T07:16:53.178Z,40.57
2018-07-25T07:19:25.772Z,38.83
2018-07-25T07:21:58.541Z,42.30
2018-07-25T07:24:31.620Z,38.28
2018-07-25T07:27:04.333Z,39.77
2018-07-25T07:29:36.957Z,38.00
2018-07-25T07:32:09.304Z,37.67
2018-07-25T07:34:41.925Z,39.97
2018-07-25T07:37:14.960Z,43.15
2018-07-25T07:39:47.699Z,38.40
2018-07-25T07:42:20.449Z,36.60
2018-07-25T07:44:53.040Z,37.23
2018-07-25T07:47:25.588Z,40.17
2018-07-25T07:49:58.174Z,44.67
2018-07-25T07:52:30.785Z,37.20
2018-07-25T07:55:03.223Z,29.67
2018-07-25T07:57:35.954Z,39.93
2018-07-25T08:00:09.498Z,38.53
2018-07-25T08:02:42.127Z,40.30
2018-07-25T08:05:18.982Z,37.67
2018-07-25T08:07:51.587Z,38.50
2018-07-25T08:10:24.012Z,31.53
2018-07-25T08:12:56.373Z,41.03
2018-07-25T08:15:29.050Z,35.37
2018-07-25T08:18:01.614Z,40.07
2018-07-25T08:20:34.256Z,41.97
2018-07-25T08:23:06.768Z,40.63
2018-07-25T08:25:39.608Z,37.00
2018-07-25T08:28:12.352Z,39.07
2018-07-25T08:30:44.868Z,36.93
2018-07-25T08:33:17.355Z,44.35
2018-07-25T08:35:50.068Z,39.53
2018-07-25T08:38:30.652Z,39.63
2018-07-25T08:41:03.035Z,40.47
2018-07-25T08:43:34.247Z,37.33
2018-07-25T08:46:07.004Z,43.80
2018-07-25T08:48:40.003Z,40.73
2018-07-25T08:51:12.973Z,45.20
2018-07-25T08:53:46.074Z,42.67
2018-07-25T08:56:18.786Z,46.47
2018-07-25T08:58:51.394Z,44.55
2018-07-25T09:01:23.906Z,47.10
2018-07-25T09:03:56.535Z,50.30
2018-07-25T09:06:29.286Z,38.27
2018-07-25T09:09:02.058Z,42.43
2018-07-25T09:11:36.739Z,40.08
2018-07-25T09:14:09.444Z,41.50
2018-07-25T09:16:42.064Z,39.70
2018-07-25T09:19:14.684Z,42.43
2018-07-25T09:21:47.174Z,49.80
2018-07-25T09:24:19.914Z,38.50
2018-07-25T09:26:52.333Z,42.73
2018-07-25T09:29:25.156Z,37.90
2018-07-25T09:31:57.837Z,43.07
2018-07-25T09:34:30.288Z,39.17
2018-07-25T09:37:03.030Z,35.83
2018-07-25T09:39:35.579Z,40.40
2018-07-25T09:42:08.082Z,41.37
2018-07-25T09:44:40.988Z,35.30
2018-07-25T09:47:13.595Z,43.35
2018-07-25T09:49:46.208Z,41.07
2018-07-25T09:52:18.844Z,35.50
2018-07-25T09:54:51.454Z,36.73
2018-07-25T09:57:24.022Z,36.17
2018-07-25T09:59:56.817Z,38.67
2018-07-25T10:02:29.979Z,43.10
2018-07-25T10:05:02.687Z,45.40
2018-07-25T10:07:35.307Z,42.60
2018-07-25T10:10:08.268Z,41.63
2018-07-25T10:12:41.250Z,38.93
2018-07-25T10:15:13.963Z,48.30
2018-07-25T10:17:46.588Z,45.73
2018-07-25T10:20:19.117Z,39.53
2018-07-25T10:22:52.026Z,51.10
2018-07-25T10:25:24.694Z,42.23
2018-07-25T10:27:57.465Z,51.68
2018-07-25T10:30:30.019Z,39.23
2018-07-25T10:33:02.641Z,53.63
2018-07-25T10:35:35.848Z,100.62
2018-07-25T10:38:08.432Z,119.37
2018-07-25T10:40:41.760Z,102.37
2018-07-25T10:43:14.369Z,85.43
2018-07-25T10:45:48.020Z,68.77
2018-07-25T10:48:21.347Z,63.80
2018-07-25T10:50:53.972Z,55.58
2018-07-25T10:53:27.103Z,61.93
2018-07-25T10:55:59.824Z,82.57
2018-07-25T10:58:32.858Z,76.63
2018-07-25T11:01:19.600Z,95.37
2018-07-25T11:04:04.919Z,71.97
2018-07-25T11:09:38.032Z,164.67
2018-07-25T11:12:11.438Z,108.17
2018-07-25T11:14:44.777Z,66.70
2018-07-25T11:17:17.441Z,81.40
2018-07-25T11:19:50.071Z,64.03
2018-07-25T11:22:22.632Z,54.20
2018-07-25T11:24:55.401Z,48.77
2018-07-25T11:27:28.082Z,55.83
2018-07-25T11:30:00.693Z,49.43
2018-07-25T11:32:33.181Z,48.50
2018-07-25T11:35:05.764Z,53.07
2018-07-25T11:37:38.535Z,55.00
2018-07-25T11:40:11.738Z,48.60
2018-07-25T11:42:44.425Z,48.73
2018-07-25T11:45:16.860Z,42.27
2018-07-25T11:47:49.505Z,50.17
2018-07-25T11:50:22.168Z,45.67
2018-07-25T11:52:55.020Z,68.97
2018-07-25T11:55:27.518Z,50.03
2018-07-25T11:58:10.536Z,53.80
2018-07-25T12:00:43.006Z,41.40
2018-07-25T12:03:15.670Z,56.60
2018-07-25T12:05:48.205Z,56.85
2018-07-25T12:08:32.204Z,58.97
2018-07-25T12:11:05.512Z,50.27
2018-07-25T12:13:42.204Z,53.90
2018-07-25T12:16:13.561Z,61.37
2018-07-25T12:18:46.243Z,57.00
2018-07-25T12:21:19.381Z,51.03
2018-07-25T12:23:53.228Z,52.10
2018-07-25T12:26:25.914Z,44.67
2018-07-25T12:28:59.836Z,44.73
2018-07-25T12:31:32.412Z,63.42
2018-07-25T12:34:05.384Z,65.87
2018-07-25T12:36:36.744Z,53.33
2018-07-25T12:39:11.097Z,56.20
2018-07-25T12:41:44.272Z,49.63
2018-07-25T12:44:16.935Z,52.80
2018-07-25T12:46:48.123Z,52.33
2018-07-25T12:49:21.365Z,47.23
2018-07-25T12:51:54.041Z,57.35
2018-07-25T12:54:26.705Z,58.03
2018-07-25T12:57:02.746Z,46.67
2018-07-25T12:59:35.997Z,51.90
2018-07-25T13:02:08.785Z,48.13
2018-07-25T13:04:41.314Z,48.13
2018-07-25T13:07:13.967Z,50.25
2018-07-25T13:09:50.386Z,45.43
2018-07-25T13:12:24.718Z,50.33
2018-07-25T13:15:00.714Z,56.53
2018-07-25T13:17:39.873Z,44.67
2018-07-25T13:20:20.605Z,46.53
2018-07-25T13:22:58.032Z,50.73
2018-07-25T13:25:35.220Z,43.47
2018-07-25T13:28:08.882Z,46.30
2018-07-25T13:30:42.014Z,57.50
2018-07-25T13:33:17.551Z,44.60
2018-07-25T13:35:52.685Z,51.07
2018-07-25T13:38:27.037Z,41.37
2018-07-25T13:40:59.997Z,42.23
2018-07-25T13:43:32.746Z,41.27
2018-07-25T13:46:05.698Z,41.88
2018-07-25T13:48:47.096Z,57.90
2018-07-25T13:51:21.127Z,37.53
2018-07-25T13:53:54.889Z,41.97
2018-07-25T13:56:26.478Z,47.60
2018-07-25T13:58:58.918Z,42.57
2018-07-25T14:01:30.360Z,38.83
2018-07-25T14:04:03.570Z,46.70
2018-07-25T14:06:37.016Z,47.27
2018-07-25T14:09:13.855Z,68.90
2018-07-25T14:11:49.552Z,43.02
2018-07-25T14:14:24.785Z,48.47
2018-07-25T14:17:03.337Z,48.20
2018-07-25T14:19:36.236Z,52.10
2018-07-25T14:22:09.459Z,39.93
2018-07-25T14:24:46.266Z,42.83
2018-07-25T14:27:20.593Z,44.23
2018-07-25T14:29:55.273Z,35.57
2018-07-25T14:32:31.941Z,40.35
2018-07-25T14:35:07.038Z,41.07
2018-07-25T14:37:40.729Z,44.43
2018-07-25T14:40:16.024Z,47.62
2018-07-25T14:42:51.468Z,37.70
2018-07-25T14:45:27.702Z,40.13
2018-07-25T14:48:01.254Z,34.53
2018-07-25T14:50:33.981Z,36.43
2018-07-25T14:53:05.577Z,31.47
2018-07-25T14:55:38.861Z,37.00
2018-07-25T14:58:11.585Z,46.33
2018-07-25T15:00:44.358Z,33.87
2018-07-25T15:03:27.483Z,28.47
2018-07-25T15:06:03.714Z,43.67
2018-07-25T15:08:36.415Z,38.50
2018-07-25T15:11:10.168Z,41.10
2018-07-25T15:13:42.763Z,42.85
2018-07-25T15:16:15.607Z,39.53
2018-07-25T15:18:49.317Z,36.80
2018-07-25T15:21:22.209Z,41.98
2018-07-25T15:24:04.816Z,40.43
2018-07-25T15:26:37.968Z,37.50
2018-07-25T15:29:12.035Z,35.10
2018-07-25T15:31:44.717Z,34.17
2018-07-25T15:34:17.558Z,33.20
2018-07-25T15:36:55.491Z,32.63
2018-07-25T15:39:28.994Z,37.43
2018-07-25T15:42:01.579Z,39.37
2018-07-25T15:44:36.998Z,37.53
2018-07-25T15:47:12.197Z,37.67
2018-07-25T15:49:54.630Z,38.70
2018-07-25T15:52:28.533Z,42.50
2018-07-25T15:55:06.531Z,36.97
2018-07-25T15:57:57.040Z,37.00
2018-07-25T16:00:31.684Z,29.93
2018-07-25T16:03:04.970Z,33.23
2018-07-25T16:05:37.998Z,31.80
2018-07-25T16:08:10.836Z,30.30
2018-07-25T16:10:44.235Z,25.53
2018-07-25T16:13:21.385Z,34.40
2018-07-25T16:15:54.034Z,37.73
2018-07-25T16:18:29.970Z,28.50
2018-07-25T16:21:03.757Z,32.83
2018-07-25T16:23:37.575Z,29.97
2018-07-25T16:26:15.328Z,43.07
2018-07-25T16:28:48.626Z,41.17
2018-07-25T16:31:30.835Z,37.77
2018-07-25T16:34:06.613Z,35.03
2018-07-25T16:36:48.969Z,28.80
2018-07-25T16:39:22.021Z,39.05
2018-07-25T16:41:55.035Z,36.07
2018-07-25T16:44:27.866Z,34.07
2018-07-25T16:47:11.080Z,36.23
2018-07-25T16:49:45.462Z,33.97
2018-07-25T16:52:19.374Z,29.77
2018-07-25T16:54:53.605Z,31.65
2018-07-25T16:57:26.288Z,35.60
2018-07-25T17:00:01.565Z,39.43
2018-07-25T17:02:34.312Z,35.80
2018-07-25T17:05:07.128Z,27.53
2018-07-25T17:07:40.320Z,23.00
2018-07-25T17:10:12.814Z,34.85
2018-07-25T17:12:45.392Z,32.23
2018-07-25T17:15:18.325Z,30.27
2018-07-25T17:17:51.607Z,31.68
2018-07-25T17:20:28.812Z,29.20
2018-07-25T17:23:01.277Z,33.70
2018-07-25T17:25:37.592Z,31.13
2018-07-25T17:28:10.429Z,31.07
2018-07-25T17:30:44.314Z,28.85
2018-07-25T17:33:21.094Z,29.73
2018-07-25T17:35:53.676Z,38.75
2018-07-25T17:38:27.766Z,30.50
2018-07-25T17:41:00.470Z,29.82
2018-07-25T17:43:34.060Z,24.98
2018-07-25T17:46:07.903Z,27.35
2018-07-25T17:48:41.948Z,30.02
2018-07-25T17:51:20.684Z,26.15
2018-07-25T17:53:53.154Z,23.60
2018-07-25T17:56:26.659Z,27.60
2018-07-25T17:58:59.348Z,21.15
2018-07-25T18:01:33.974Z,29.18
2018-07-25T18:04:09.025Z,32.33
2018-07-25T18:06:41.814Z,22.05
2018-07-25T18:09:15.547Z,25.82
2018-07-25T18:11:48.082Z,28.83
2018-07-25T18:14:21.174Z,27.82
2018-07-25T18:16:53.693Z,32.35
2018-07-25T18:19:28.242Z,28.75
2018-07-25T18:22:01.812Z,29.72
2018-07-25T18:24:35.543Z,25.75
2018-07-25T18:27:09.327Z,24.52
2018-07-25T18:29:42.827Z,26.85
2018-07-25T18:32:22.096Z,28.00
2018-07-25T18:34:57.891Z,27.50
2018-07-25T18:37:31.360Z,28.87
2018-07-25T18:40:04.195Z,26.37
2018-07-25T18:42:37.403Z,24.02
2018-07-25T18:45:10.441Z,28.87
2018-07-25T18:47:43.383Z,28.75
2018-07-25T18:50:16.337Z,28.52
2018-07-25T18:52:50.069Z,26.48
2018-07-25T18:55:24.467Z,23.40
2018-07-25T18:58:04.216Z,25.52
2018-07-25T19:00:38.071Z,24.20
2018-07-25T19:03:13.731Z,22.82
2018-07-25T19:05:49.628Z,21.65
2018-07-25T19:08:22.413Z,23.25
2018-07-25T19:10:55.357Z,27.02
2018-07-25T19:13:37.158Z,34.60
2018-07-25T19:16:11.102Z,21.73
2018-07-25T19:18:43.830Z,28.12
2018-07-25T19:21:16.973Z,23.62
2018-07-25T19:23:49.948Z,24.50
2018-07-25T19:26:27.665Z,27.25
2018-07-25T19:29:00.341Z,22.77
2018-07-25T19:31:33.063Z,22.75
2018-07-25T19:34:05.582Z,21.95
2018-07-25T19:36:39.241Z,26.15
2018-07-25T19:39:19.371Z,28.80
2018-07-25T19:41:55.530Z,27.43
2018-07-25T19:44:28.399Z,27.95
2018-07-25T19:47:01.550Z,30.40
2018-07-25T19:49:40.615Z,19.23
2018-07-25T19:52:13.946Z,24.18
2018-07-25T19:54:46.867Z,22.90
2018-07-25T19:57:19.640Z,20.62
2018-07-25T19:59:55.727Z,18.30
2018-07-25T20:02:31.365Z,29.57
2018-07-25T20:05:09.712Z,28.23
2018-07-25T20:07:42.299Z,22.55
2018-07-25T20:10:22.171Z,21.35
2018-07-25T20:12:55.154Z,20.80
2018-07-25T20:15:33.649Z,22.20
2018-07-25T20:18:07.379Z,19.67
2018-07-25T20:20:40.037Z,28.95
2018-07-25T20:23:12.884Z,19.40
2018-07-25T20:25:46.650Z,21.57
2018-07-25T20:28:19.308Z,27.07
2018-07-25T20:30:53.489Z,26.62
2018-07-25T20:33:28.769Z,23.12
2018-07-25T20:36:01.968Z,32.58
2018-07-25T20:38:39.766Z,27.15
2018-07-25T20:41:12.903Z,23.15
2018-07-25T20:43:49.514Z,22.67
2018-07-25T20:46:22.143Z,18.10
2018-07-25T20:48:55.158Z,22.07
2018-07-25T20:51:27.810Z,20.77
2018-07-25T20:54:06.499Z,33.45
2018-07-25T20:56:47.155Z,18.55
2018-07-25T20:59:28.753Z,21.87
2018-07-25T21:02:17.347Z,20.92
2018-07-25T21:04:50.362Z,19.30
2018-07-25T21:07:23.000Z,16.57
2018-07-25T21:09:56.819Z,18.35
2018-07-25T21:12:29.532Z,19.30
2018-07-25T21:15:02.576Z,22.10
2018-07-25T21:17:36.921Z,18.32
2018-07-25T21:20:09.607Z,23.42
2018-07-25T21:22:43.690Z,25.10
2018-07-25T21:25:18.087Z,22.98
2018-07-25T21:27:59.105Z,22.98
2018-07-25T21:30:38.751Z,17.62
2018-07-25T21:33:49.701Z,24.35
2018-07-25T21:36:23.682Z,20.25
2018-07-25T21:39:01.384Z,21.37
2018-07-25T21:41:37.898Z,30.95
2018-07-25T21:44:10.586Z,21.60
2018-07-25T21:46:43.367Z,18.20
2018-07-25T21:49:16.400Z,23.92
2018-07-25T21:51:49.272Z,26.48
2018-07-25T21:54:21.923Z,24.85
2018-07-25T21:56:54.678Z,24.10
2018-07-25T21:59:28.807Z,20.65
2018-07-25T22:02:01.606Z,28.95
2018-07-25T22:04:41.781Z,16.57
2018-07-25T22:07:14.359Z,40.05
2018-07-25T22:09:47.894Z,18.92
2018-07-25T22:12:20.568Z,25.70
2018-07-25T22:14:53.186Z,19.17
2018-07-25T22:17:28.477Z,21.33
2018-07-25T22:19:59.753Z,19.02
2018-07-25T22:22:35.529Z,25.30
2018-07-25T22:25:09.465Z,17.27
2018-07-25T22:27:44.227Z,20.47
2018-07-25T22:30:16.745Z,28.98
2018-07-25T22:32:49.730Z,25.68
2018-07-25T22:35:22.667Z,19.12
2018-07-25T22:37:55.220Z,26.53
2018-07-25T22:40:28.256Z,29.37
2018-07-25T22:43:08.046Z,26.83
2018-07-25T22:45:44.826Z,28.20
2018-07-25T22:48:20.602Z,21.03
2018-07-25T22:51:01.984Z,27.47
2018-07-25T22:53:49.517Z,32.17
2018-07-25T22:56:24.217Z,25.92
2018-07-25T22:59:03.055Z,29.50
2018-07-25T23:01:39.039Z,32.63
2018-07-25T23:04:11.969Z,27.97
2018-07-25T23:06:44.549Z,28.02
2018-07-25T23:09:17.227Z,34.60
2018-07-25T23:11:49.754Z,36.30
2018-07-25T23:14:22.786Z,22.53
2018-07-25T23:16:54.038Z,33.20
2018-07-25T23:19:26.934Z,28.50
2018-07-25T23:22:00.138Z,23.30
2018-07-25T23:24:32.854Z,29.10
2018-07-25T23:27:06.086Z,32.40
2018-07-25T23:29:38.879Z,25.87
2018-07-25T23:32:11.817Z,29.63
2018-07-25T23:34:44.971Z,30.20
2018-07-25T23:37:17.943Z,33.87
2018-07-25T23:39:54.127Z,40.53
2018-07-25T23:42:26.979Z,23.37
2018-07-25T23:44:59.678Z,33.20
2018-07-25T23:47:32.340Z,24.23
2018-07-25T23:50:05.441Z,33.13
2018-07-25T23:52:38.223Z,32.53
2018-07-25T23:55:11.106Z,35.93
2018-07-25T23:57:43.856Z,33.70
